This is the latest recevied weather packets stored in our database for station/object W7TRD. If no packets are shown the sender has not sent any weather packets the latest 1 day(s).
| Time | Temp. | Humidity | Pressure | Rain* | Wind** | Luminosity | Snow |
|---|---|---|---|---|---|---|---|
| 1778037342 | 15.56° C | 79% | 1016.4 hPa | 0 mm | - | 6 W/m² | - |
| 1778037038 | 15.56° C | 78% | 1016.3 hPa | 0 mm | - | 8 W/m² | - |
| 1778036737 | 15.56° C | 77% | 1016.3 hPa | 0 mm | - | 11 W/m² | - |
| 1778036434 | 16.11° C | 75% | 1016.3 hPa | 0 mm | - | 14 W/m² | - |
| 1778036131 | 16.11° C | 75% | 1016.2 hPa | 0 mm | - | 17 W/m² | - |
| 1778035524 | 16.67° C | 73% | 1016.2 hPa | 0 mm | - | 23 W/m² | - |
| 1778035220 | 16.67° C | 72% | 1016 hPa | 0 mm | - | 26 W/m² | - |
| 1778034916 | 17.22° C | 71% | 1016 hPa | 0 mm | - | 29 W/m² | - |
| 1778034614 | 17.78° C | 69% | 1015.9 hPa | 0 mm | - | 35 W/m² | - |
| 1778034009 | 17.78° C | 70% | 1016.2 hPa | 0 mm | - | 56 W/m² | - |
| 1778033706 | 17.78° C | 69% | 1016.2 hPa | 0 mm | - | 65 W/m² | - |
| 1778033101 | 18.33° C | 68% | 1015.9 hPa | 0 mm | - | 77 W/m² | - |
| 1778032495 | 18.33° C | 68% | 1015.9 hPa | 0 mm | - | 106 W/m² | - |
| 1778032192 | 18.33° C | 68% | 1016.2 hPa | 0 mm | - | 132 W/m² | - |
| 1778031889 | 18.33° C | 68% | 1016.2 hPa | 0 mm | - | 156 W/m² | - |
| 1778031585 | 17.78° C | 70% | 1016 hPa | 0 mm | - | 154 W/m² | - |
| 1778031283 | 18.33° C | 68% | 1016.3 hPa | 0 mm | - | 112 W/m² | - |
| 1778030979 | 17.78° C | 69% | 1016 hPa | 0 mm | - | 155 W/m² | - |
| 1778030676 | 18.33° C | 69% | 1016.2 hPa | 0 mm | - | 142 W/m² | - |
| 1778030373 | 18.33° C | 69% | 1016.2 hPa | 0 mm | - | 120 W/m² | - |
| 1778029767 | 17.78° C | 69% | 1016.2 hPa | 0 mm | - | 162 W/m² | - |
| 1778029466 | 17.78° C | 72% | 1016.4 hPa | 0 mm | - | 196 W/m² | - |
| 1778029161 | 17.22° C | 72% | 1016.2 hPa | 0 mm | - | 118 W/m² | - |
| 1778028860 | 17.22° C | 72% | 1016.3 hPa | 0 mm | - | 109 W/m² | - |
| 1778028554 | 17.22° C | 72% | 1016.1 hPa | 0 mm | - | 114 W/m² | - |
* Rain latest hour (hover to see other rain measurements)
** Current wind speed in m/s (hover to see current wind gust speed)